Time;durP1;ratioP1;P1;durP2;ratioP2;P2;SDS_P1;SDS_P2;PMS_P1;PMS_P2;Temp;Humidity;BMP_temperature;BMP_pressure;BME280_temperature;BME280_humidity;BME280_pressure;Samples;Min_cycle;Max_cycle;Signal;HPM_P1;HPM_P2
2022/04/18 00:01:28;;;;;;;3.80;2.78;;;11.10;79.50;;;;;;4956680;29;20051;-72
2022/04/18 00:03:56;;;;;;;4.72;3.17;;;11.00;79.80;;;;;;4956552;28;20043;-72
2022/04/18 00:06:23;;;;;;;2.97;2.67;;;10.90;80.30;;;;;;4955115;28;20095;-73
2022/04/18 00:08:51;;;;;;;4.72;2.60;;;10.90;80.50;;;;;;4936548;29;20059;-73
2022/04/18 00:11:19;;;;;;;4.15;2.30;;;10.80;80.60;;;;;;4954175;29;20055;-73
2022/04/18 00:13:46;;;;;;;3.08;2.40;;;10.70;80.60;;;;;;4954879;29;20059;-73
2022/04/18 00:16:14;;;;;;;3.50;2.28;;;10.70;80.60;;;;;;4936979;29;20059;-73
2022/04/18 00:18:42;;;;;;;2.55;2.28;;;10.70;80.70;;;;;;4943637;29;20379;-72
2022/04/18 00:21:09;;;;;;;3.35;2.08;;;10.60;80.80;;;;;;4937201;29;20410;-73
2022/04/18 00:23:37;;;;;;;2.03;1.75;;;10.60;80.90;;;;;;4956481;28;20059;-75
2022/04/18 00:26:05;;;;;;;2.38;1.70;;;10.60;80.90;;;;;;4954840;28;20405;-75
2022/04/18 00:28:32;;;;;;;2.28;1.67;;;10.60;80.80;;;;;;4939969;29;20417;-74
2022/04/18 00:31:00;;;;;;;2.92;2.00;;;10.60;80.70;;;;;;4941687;29;20043;-72
2022/04/18 00:33:28;;;;;;;3.50;1.67;;;10.50;80.70;;;;;;4955499;28;20047;-73
2022/04/18 00:35:56;;;;;;;2.15;1.52;;;10.50;80.90;;;;;;4955750;29;20044;-74
2022/04/18 00:38:24;;;;;;;1.92;1.40;;;10.50;80.80;;;;;;4942101;29;20047;-77
2022/04/18 00:40:52;;;;;;;1.83;1.63;;;10.60;80.80;;;;;;4938650;29;20074;-72
2022/04/18 00:43:41;;;;;;;2.10;1.30;;;10.60;80.70;;;;;;4928341;29;20039;-72
2022/04/18 00:46:10;;;;;;;2.50;1.30;;;10.60;80.60;;;;;;4938725;29;20047;-72
2022/04/18 00:48:37;;;;;;;1.75;1.30;;;10.60;80.50;;;;;;4924985;29;20051;-73
2022/04/18 00:51:08;;;;;;;1.05;0.80;;;10.60;80.60;;;;;;4919808;29;20062;-72
2022/04/18 00:53:38;;;;;;;2.47;1.20;;;10.50;80.60;;;;;;4920082;29;20055;-72
2022/04/18 00:56:07;;;;;;;1.50;1.13;;;10.50;80.60;;;;;;4921890;29;20169;-72
2022/04/18 00:58:36;;;;;;;3.03;1.23;;;10.50;80.70;;;;;;4927943;29;20054;-72
2022/04/18 01:01:04;;;;;;;2.30;1.48;;;10.40;80.90;;;;;;4938172;29;20055;-72
2022/04/18 01:03:31;;;;;;;1.98;1.23;;;10.40;80.90;;;;;;4923064;29;20063;-72
2022/04/18 01:06:00;;;;;;;2.53;1.40;;;10.40;81.00;;;;;;4919938;29;20401;-72
2022/04/18 01:08:31;;;;;;;1.55;1.30;;;10.40;81.00;;;;;;4919848;29;20501;-72
2022/04/18 01:10:59;;;;;;;2.17;1.25;;;10.30;81.00;;;;;;4951347;29;20047;-73
2022/04/18 01:13:48;;;;;;;1.67;1.02;;;10.30;81.10;;;;;;4919722;29;20058;-72
2022/04/18 01:16:42;;;;;;;1.10;1.00;;;10.20;81.40;;;;;;4919275;29;20048;-73
2022/04/18 01:19:18;;;;;;;2.35;1.23;;;10.10;81.40;;;;;;4913502;29;20062;-72
2022/04/18 01:22:00;;;;;;;2.05;1.08;;;10.00;81.50;;;;;;4955655;29;20512;-72
2022/04/18 01:30:25;;;;;;;2.03;1.27;;;9.80;82.60;;;;;;4938084;29;20393;-71
2022/04/18 01:32:53;;;;;;;2.78;1.40;;;9.70;82.70;;;;;;4922194;29;20413;-73
2022/04/18 01:35:20;;;;;;;1.77;1.05;;;9.70;82.70;;;;;;4953911;29;20059;-71
2022/04/18 01:37:49;;;;;;;1.27;1.00;;;9.50;82.80;;;;;;4936593;29;20452;-72
2022/04/18 01:40:18;;;;;;;4.03;1.48;;;9.50;82.90;;;;;;4937485;29;20051;-72
2022/04/18 01:42:45;;;;;;;1.73;1.30;;;9.40;83.20;;;;;;4922410;29;20057;-72
2022/04/18 01:45:15;;;;;;;1.73;1.30;;;9.40;83.40;;;;;;4937921;29;20054;-72
2022/04/18 01:47:47;;;;;;;2.85;1.30;;;9.30;83.60;;;;;;4937619;29;20050;-72
2022/04/18 01:50:16;;;;;;;1.83;1.10;;;9.30;83.60;;;;;;4937576;29;20052;-72
2022/04/18 01:52:44;;;;;;;1.30;1.20;;;9.30;83.70;;;;;;4936988;29;20042;-72
2022/04/18 01:55:11;;;;;;;4.55;1.25;;;9.30;83.80;;;;;;4945559;28;20051;-72
2022/04/18 01:57:40;;;;;;;1.80;1.30;;;9.30;83.90;;;;;;4931259;29;20059;-72
2022/04/18 02:00:08;;;;;;;2.40;1.48;;;9.30;84.00;;;;;;4925605;29;20054;-71
2022/04/18 02:02:40;;;;;;;4.47;1.10;;;9.30;84.00;;;;;;4936548;29;20120;-72
2022/04/18 02:05:08;;;;;;;2.38;1.20;;;9.30;84.20;;;;;;4920021;29;20043;-71
2022/04/18 02:07:38;;;;;;;2.95;1.70;;;9.30;84.40;;;;;;4935683;29;20409;-72
2022/04/18 02:10:08;;;;;;;2.58;1.30;;;9.20;84.40;;;;;;4920110;29;20039;-71
2022/04/18 02:12:36;;;;;;;4.72;1.40;;;9.10;84.50;;;;;;4937669;29;20051;-71
2022/04/18 02:15:07;;;;;;;4.00;1.67;;;9.10;84.60;;;;;;4944947;28;20047;-72
2022/04/18 02:17:44;;;;;;;1.65;1.05;;;9.00;84.60;;;;;;4932569;29;20062;-71
2022/04/18 02:20:11;;;;;;;1.80;1.38;;;9.00;84.70;;;;;;4952401;29;20059;-72
2022/04/18 02:22:39;;;;;;;2.80;1.50;;;8.90;84.80;;;;;;4924539;29;20059;-72
2022/04/18 02:25:08;;;;;;;2.83;1.60;;;8.80;85.00;;;;;;4930527;29;20516;-72
2022/04/18 02:27:36;;;;;;;4.22;1.38;;;8.80;85.00;;;;;;4932538;28;20053;-71
2022/04/18 02:30:06;;;;;;;5.18;1.45;;;8.80;85.10;;;;;;4940234;28;20404;-71
2022/04/18 02:32:50;;;;;;;2.58;1.60;;;8.70;85.30;;;;;;4943160;29;20062;-70
2022/04/18 02:35:22;;;;;;;3.40;1.40;;;8.60;85.50;;;;;;4937196;29;20043;-71
2022/04/18 02:37:54;;;;;;;3.92;1.50;;;8.50;85.60;;;;;;4954508;29;20062;-71
2022/04/18 02:40:27;;;;;;;3.28;1.60;;;8.50;85.50;;;;;;4921402;29;20054;-72
2022/04/18 02:42:55;;;;;;;2.70;1.55;;;8.40;85.40;;;;;;4946902;29;20063;-71
2022/04/18 02:45:23;;;;;;;9.30;1.80;;;8.40;85.60;;;;;;4952023;29;20050;-72
2022/04/18 02:48:17;;;;;;;2.65;1.40;;;8.30;85.80;;;;;;4914610;29;20068;-72
2022/04/18 02:50:49;;;;;;;3.50;1.50;;;8.30;86.10;;;;;;4927681;29;20421;-71
2022/04/18 02:53:24;;;;;;;5.65;1.38;;;8.20;86.30;;;;;;4925170;29;20054;-71
2022/04/18 02:55:56;;;;;;;2.22;0.90;;;8.30;86.20;;;;;;4953927;29;20417;-71
2022/04/18 02:58:24;;;;;;;2.63;1.15;;;8.30;86.30;;;;;;4953009;29;20051;-71
2022/04/18 03:00:52;;;;;;;3.08;1.30;;;8.30;86.20;;;;;;4921408;29;20081;-71
2022/04/18 03:03:21;;;;;;;4.03;1.10;;;8.20;86.20;;;;;;4937030;29;20487;-71
2022/04/18 03:05:49;;;;;;;3.33;1.00;;;8.20;85.90;;;;;;4953089;28;20043;-71
2022/04/18 03:08:19;;;;;;;4.07;0.80;;;8.30;85.80;;;;;;4935219;29;20043;-71
2022/04/18 03:11:05;;;;;;;1.90;0.95;;;8.20;85.60;;;;;;4936268;29;20055;-72
2022/04/18 03:13:43;;;;;;;4.75;0.95;;;8.20;85.50;;;;;;4921466;29;20375;-71
2022/04/18 03:16:20;;;;;;;3.70;1.00;;;8.20;85.40;;;;;;4913921;29;20043;-71
2022/04/18 03:18:47;;;;;;;7.20;1.00;;;8.20;85.40;;;;;;4905956;29;20063;-71
2022/04/18 03:21:16;;;;;;;4.28;1.00;;;8.20;85.30;;;;;;4943788;29;20062;-71
2022/04/18 03:23:46;;;;;;;2.15;0.90;;;8.20;85.20;;;;;;4929300;29;20051;-71
2022/04/18 03:26:18;;;;;;;4.45;0.88;;;8.20;85.20;;;;;;4921559;29;20505;-72
2022/04/18 03:29:01;;;;;;;5.47;1.27;;;8.20;85.20;;;;;;4930995;29;20048;-71
2022/04/18 03:31:29;;;;;;;4.65;0.80;;;8.20;85.00;;;;;;4932738;29;20047;-72
2022/04/18 03:33:58;;;;;;;3.92;0.90;;;8.20;84.80;;;;;;4938271;29;20412;-72
2022/04/18 03:41:59;;;;;;;2.13;0.65;;;8.30;84.20;;;;;;4976526;28;20051;-72
2022/04/18 03:44:27;;;;;;;1.95;0.70;;;8.30;84.00;;;;;;4966052;28;20413;-72
2022/04/18 03:46:54;;;;;;;3.75;0.88;;;8.30;83.80;;;;;;4957184;28;20047;-72
2022/04/18 03:49:22;;;;;;;4.53;0.80;;;8.20;83.70;;;;;;4935339;29;20055;-72
2022/04/18 03:51:52;;;;;;;4.03;1.02;;;8.20;83.60;;;;;;4938986;28;20409;-73
2022/04/18 03:54:19;;;;;;;2.55;0.80;;;8.20;83.50;;;;;;4942744;29;20058;-72
2022/04/18 03:56:47;;;;;;;5.68;0.80;;;8.20;83.50;;;;;;4955715;28;20057;-72
2022/04/18 03:59:30;;;;;;;4.47;1.10;;;8.30;83.50;;;;;;4945422;28;20046;-72
2022/04/18 04:02:02;;;;;;;2.25;0.82;;;8.30;83.20;;;;;;4941737;29;20051;-71
2022/04/18 04:04:33;;;;;;;4.65;0.88;;;8.30;82.90;;;;;;4943197;29;20051;-71
2022/04/18 04:07:04;;;;;;;3.88;0.93;;;8.30;82.70;;;;;;4941399;28;20409;-72
2022/04/18 04:09:37;;;;;;;10.10;1.08;;;8.30;82.60;;;;;;4954561;28;20055;-71
2022/04/18 04:12:07;;;;;;;4.63;0.90;;;8.30;82.50;;;;;;4920654;29;20051;-72
2022/04/18 04:14:56;;;;;;;3.40;0.90;;;8.30;82.40;;;;;;4924448;28;20370;-72
2022/04/18 04:17:32;;;;;;;1.75;0.70;;;8.30;82.40;;;;;;4955480;28;20055;-72
2022/04/18 04:20:19;;;;;;;3.25;1.00;;;8.20;82.50;;;;;;4954641;28;20058;-71
2022/04/18 04:22:51;;;;;;;8.95;1.02;;;8.20;82.50;;;;;;4939892;28;20128;-72
2022/04/18 04:25:35;;;;;;;3.92;0.80;;;8.20;82.50;;;;;;4944546;28;20493;-71
2022/04/18 04:28:03;;;;;;;2.53;0.93;;;8.20;82.50;;;;;;4958541;28;20054;-72
2022/04/18 04:30:31;;;;;;;7.82;1.08;;;8.20;82.50;;;;;;4938681;29;20404;-72
2022/04/18 04:33:03;;;;;;;5.80;0.70;;;8.30;82.40;;;;;;4925740;29;20047;-72
2022/04/18 04:35:32;;;;;;;3.00;0.85;;;8.30;82.50;;;;;;4920520;29;20051;-72
2022/04/18 04:38:04;;;;;;;3.03;0.60;;;8.30;82.40;;;;;;4939106;29;20054;-72
2022/04/18 04:40:44;;;;;;;3.25;0.77;;;8.30;82.40;;;;;;4927782;29;20039;-72
2022/04/18 04:43:16;;;;;;;3.95;1.27;;;8.30;82.40;;;;;;4938813;29;20051;-72
2022/04/18 04:45:47;;;;;;;2.92;0.90;;;8.30;82.40;;;;;;4927516;29;20509;-72
2022/04/18 04:48:24;;;;;;;2.72;0.90;;;8.30;82.50;;;;;;4934842;29;20418;-72
2022/04/18 04:50:56;;;;;;;5.93;1.53;;;8.30;82.50;;;;;;4953650;29;20378;-72
2022/04/18 04:53:23;;;;;;;5.75;1.08;;;8.30;82.50;;;;;;4937624;29;20059;-72
2022/04/18 04:55:52;;;;;;;2.85;0.98;;;8.30;82.50;;;;;;4922224;29;20054;-73
2022/04/18 04:58:20;;;;;;;3.53;1.30;;;8.30;82.50;;;;;;4923230;29;20062;-72
2022/04/18 05:00:53;;;;;;;4.45;1.35;;;8.30;82.60;;;;;;4923178;29;20521;-72
2022/04/18 05:03:29;;;;;;;5.05;0.90;;;8.40;82.60;;;;;;4936640;29;20051;-72
2022/04/18 05:05:57;;;;;;;2.85;0.82;;;8.40;82.70;;;;;;4912838;29;20050;-74
2022/04/18 05:08:32;;;;;;;5.30;0.98;;;8.40;82.70;;;;;;4938588;29;20047;-73
2022/04/18 05:11:02;;;;;;;6.13;1.00;;;8.40;82.80;;;;;;4923087;29;20066;-73
2022/04/18 05:13:42;;;;;;;3.78;1.33;;;8.40;82.80;;;;;;4917746;29;20047;-73
2022/04/18 05:16:10;;;;;;;4.43;1.00;;;8.40;82.90;;;;;;4917907;29;20040;-73
2022/04/18 05:18:52;;;;;;;5.35;1.02;;;8.40;82.90;;;;;;4920600;29;20047;-72
2022/04/18 05:21:20;;;;;;;4.22;1.13;;;8.40;83.00;;;;;;4942495;29;20393;-72
2022/04/18 05:23:49;;;;;;;5.80;1.27;;;8.40;83.10;;;;;;4941482;29;20051;-72
2022/04/18 05:26:18;;;;;;;6.38;1.58;;;8.40;83.20;;;;;;4938337;29;20050;-73
2022/04/18 05:28:45;;;;;;;7.38;0.90;;;8.50;83.20;;;;;;4928564;29;20066;-72
2022/04/18 05:31:19;;;;;;;3.00;0.90;;;8.50;83.10;;;;;;4928404;29;20044;-72
2022/04/18 05:33:49;;;;;;;8.30;1.30;;;8.50;83.20;;;;;;4934006;28;20050;-73
2022/04/18 05:36:31;;;;;;;3.03;0.93;;;8.50;83.20;;;;;;4902808;29;20048;-73
2022/04/18 05:39:00;;;;;;;6.88;1.10;;;8.50;83.30;;;;;;4945649;28;20047;-72
2022/04/18 05:41:35;;;;;;;2.15;0.98;;;8.40;83.30;;;;;;4937480;29;20059;-73
2022/04/18 05:44:03;;;;;;;2.88;1.00;;;8.40;83.40;;;;;;4922706;28;20047;-72
2022/04/18 05:46:42;;;;;;;3.72;1.02;;;8.40;83.40;;;;;;4917195;29;20048;-72
2022/04/18 05:49:10;;;;;;;2.75;0.88;;;8.40;83.40;;;;;;4919054;29;20506;-72
2022/04/18 05:51:38;;;;;;;5.07;1.00;;;8.40;83.40;;;;;;4922672;29;20056;-72
2022/04/18 05:54:07;;;;;;;8.73;1.30;;;8.40;83.50;;;;;;4927433;29;20055;-72
2022/04/18 05:56:39;;;;;;;3.47;1.10;;;8.40;83.60;;;;;;4935687;29;20401;-72
2022/04/18 05:59:24;;;;;;;5.57;1.13;;;8.40;83.50;;;;;;4950809;29;20054;-72
2022/04/18 06:01:58;;;;;;;6.88;1.10;;;8.30;83.60;;;;;;4937598;29;20058;-72
2022/04/18 06:04:39;;;;;;;3.13;0.93;;;8.30;83.60;;;;;;4925232;29;20500;-72
2022/04/18 06:07:15;;;;;;;3.10;1.00;;;8.30;83.80;;;;;;4939099;28;20043;-72
2022/04/18 06:09:45;;;;;;;5.05;1.17;;;8.30;83.70;;;;;;4936472;29;20407;-72
2022/04/18 06:12:21;;;;;;;5.35;1.13;;;8.30;83.60;;;;;;4938872;28;20057;-72
2022/04/18 06:14:51;;;;;;;5.07;1.00;;;8.30;83.60;;;;;;4919464;29;20043;-72
2022/04/18 06:17:20;;;;;;;3.85;0.63;;;8.40;83.50;;;;;;4928985;29;20055;-71
2022/04/18 06:19:50;;;;;;;2.38;0.90;;;8.40;83.40;;;;;;4923885;29;20048;-72
2022/04/18 06:22:17;;;;;;;7.35;1.13;;;8.50;83.30;;;;;;4939053;29;20059;-72
2022/04/18 06:24:46;;;;;;;6.50;1.40;;;8.50;83.30;;;;;;4922173;29;20056;-72
2022/04/18 06:27:18;;;;;;;8.80;1.08;;;8.50;83.40;;;;;;4918256;29;20397;-72
2022/04/18 06:29:45;;;;;;;5.22;1.05;;;8.50;83.30;;;;;;4910072;29;20058;-72
2022/04/18 06:32:15;;;;;;;2.83;1.10;;;8.50;83.30;;;;;;4921368;29;20050;-72
2022/04/18 06:34:47;;;;;;;5.00;1.10;;;8.50;83.20;;;;;;4918236;29;20398;-72
2022/04/18 06:37:22;;;;;;;3.70;1.10;;;8.50;83.10;;;;;;4933523;29;20493;-72
2022/04/18 06:40:06;;;;;;;5.18;1.30;;;8.50;83.10;;;;;;4912198;29;20047;-72
2022/04/18 06:42:39;;;;;;;;;;;8.50;83.20;;;;;;4923253;29;20425;-72
2022/04/18 06:45:16;;;;;;;3.50;0.93;;;8.50;83.20;;;;;;4936604;29;19923;-72
2022/04/18 06:47:44;;;;;;;5.22;1.23;;;8.50;83.30;;;;;;4948148;29;20074;-72
2022/04/18 06:50:41;;;;;;;7.85;1.48;;;8.50;83.30;;;;;;4944363;29;20082;-72
2022/04/18 06:53:29;;;;;;;3.05;1.05;;;8.60;83.30;;;;;;4948277;28;20073;-72
2022/04/18 06:59:27;;;;;;;5.13;1.20;;;8.60;83.20;;;;;;4907429;29;20053;-72
2022/04/18 07:01:56;;;;;;;4.88;1.05;;;8.70;83.00;;;;;;4934731;29;20043;-72
2022/04/18 07:04:25;;;;;;;9.52;1.67;;;8.70;82.90;;;;;;4925867;29;20055;-72
2022/04/18 07:06:53;;;;;;;7.63;1.35;;;8.80;82.80;;;;;;4933222;29;20379;-72
2022/04/18 07:09:22;;;;;;;3.70;1.00;;;8.80;82.60;;;;;;4916009;29;20048;-72
2022/04/18 07:11:53;;;;;;;5.65;1.48;;;8.90;82.60;;;;;;4921361;29;20060;-71
2022/04/18 07:14:24;;;;;;;4.93;1.30;;;8.90;82.30;;;;;;4919514;29;20056;-71
2022/04/18 07:16:54;;;;;;;7.60;1.30;;;9.00;82.20;;;;;;4934840;29;20047;-72
2022/04/18 07:19:25;;;;;;;4.88;1.17;;;9.10;82.10;;;;;;4917093;29;20056;-72
2022/04/18 07:21:54;;;;;;;4.55;1.27;;;9.10;81.90;;;;;;4903398;29;20066;-72
2022/04/18 07:24:23;;;;;;;6.38;1.20;;;9.20;81.70;;;;;;4930451;29;20047;-72
2022/04/18 07:26:53;;;;;;;5.20;1.05;;;9.20;81.50;;;;;;4934066;29;20046;-71
2022/04/18 07:29:21;;;;;;;5.40;1.35;;;9.30;81.40;;;;;;4935269;29;20054;-71
2022/04/18 07:31:49;;;;;;;5.97;1.38;;;9.30;81.00;;;;;;4920566;29;20043;-72
2022/04/18 07:34:17;;;;;;;8.35;1.15;;;9.30;81.10;;;;;;4926495;29;20044;-72
2022/04/18 07:36:45;;;;;;;5.55;1.00;;;9.30;81.00;;;;;;4936113;29;20054;-72
2022/04/18 07:39:13;;;;;;;2.80;0.95;;;9.40;80.80;;;;;;4930401;29;20047;-73
2022/04/18 07:41:49;;;;;;;4.40;1.20;;;9.40;80.60;;;;;;4927683;29;20047;-71
2022/04/18 07:44:20;;;;;;;3.75;0.90;;;9.40;80.30;;;;;;4925487;29;20052;-72
2022/04/18 07:46:48;;;;;;;5.20;1.25;;;9.40;80.20;;;;;;4927695;29;20046;-71
2022/04/18 07:49:25;;;;;;;9.85;1.40;;;9.40;79.90;;;;;;4923812;29;20070;-71
2022/04/18 07:51:54;;;;;;;5.40;1.00;;;9.50;79.90;;;;;;4919202;29;20046;-72
2022/04/18 07:54:33;;;;;;;3.90;1.13;;;9.50;80.00;;;;;;4917849;29;20048;-72
2022/04/18 07:57:02;;;;;;;4.13;1.10;;;9.50;79.80;;;;;;4921055;29;20035;-72
2022/04/18 07:59:55;;;;;;;5.38;0.98;;;9.60;79.70;;;;;;4936008;29;20062;-72
2022/04/18 08:02:24;;;;;;;3.45;0.77;;;9.60;79.20;;;;;;4931355;29;20043;-72
2022/04/18 08:05:08;;;;;;;4.47;1.30;;;9.60;78.90;;;;;;4921316;29;20454;-71
2022/04/18 08:07:56;;;;;;;8.07;1.08;;;9.60;78.70;;;;;;4934311;28;20039;-72
2022/04/18 08:10:25;;;;;;;7.70;1.30;;;9.70;79.20;;;;;;4931633;29;20493;-72
2022/04/18 08:12:52;;;;;;;3.35;1.20;;;9.70;78.70;;;;;;4937687;29;20047;-72
2022/04/18 08:15:43;;;;;;;9.90;1.52;;;9.80;78.60;;;;;;4941137;28;20054;-71
2022/04/18 08:18:26;;;;;;;6.45;1.60;;;9.80;78.70;;;;;;4958473;28;20058;-72
2022/04/18 08:20:55;;;;;;;5.82;0.90;;;10.00;78.60;;;;;;4946881;29;20062;-72
2022/04/18 08:23:23;;;;;;;8.52;1.15;;;10.10;78.30;;;;;;4956695;29;20393;-72
2022/04/18 08:25:52;;;;;;;5.05;1.10;;;10.20;76.80;;;;;;4955254;29;20412;-72
2022/04/18 08:28:35;;;;;;;5.60;1.43;;;10.20;76.70;;;;;;4953215;29;20050;-72
2022/04/18 08:31:03;;;;;;;4.95;1.25;;;10.30;77.00;;;;;;4936107;29;20054;-72
2022/04/18 08:33:54;;;;;;;5.50;1.30;;;10.30;76.70;;;;;;4934690;29;20046;-72
2022/04/18 08:36:22;;;;;;;6.35;1.45;;;10.50;76.50;;;;;;4934090;29;20046;-73
2022/04/18 08:38:50;;;;;;;4.22;1.10;;;10.60;75.90;;;;;;4910858;29;20146;-72
2022/04/18 08:41:44;;;;;;;5.20;1.35;;;10.70;75.40;;;;;;4929613;29;20047;-72
2022/04/18 08:44:19;;;;;;;5.15;1.35;;;10.80;74.80;;;;;;4922420;29;20413;-72
2022/04/18 08:46:48;;;;;;;5.35;1.30;;;10.80;74.70;;;;;;4935633;29;20047;-73
2022/04/18 08:55:16;;;;;;;5.43;1.38;;;11.20;73.00;;;;;;4822910;29;20046;-72
2022/04/18 08:57:44;;;;;;;4.38;1.05;;;11.30;71.10;;;;;;4846251;29;20077;-71
2022/04/18 09:00:13;;;;;;;6.55;1.10;;;11.30;70.50;;;;;;4830409;29;20547;-71
2022/04/18 09:02:45;;;;;;;3.88;1.05;;;11.30;70.50;;;;;;4840745;29;20069;-71
2022/04/18 09:05:22;;;;;;;3.70;1.10;;;11.30;71.10;;;;;;4849139;29;20051;-71
2022/04/18 09:08:01;;;;;;;6.75;1.42;;;11.50;70.20;;;;;;4835093;29;20617;-72
2022/04/18 09:10:35;;;;;;;5.30;1.10;;;11.60;69.90;;;;;;4839871;29;20420;-72
2022/04/18 09:13:11;;;;;;;5.18;1.13;;;11.80;70.00;;;;;;4826486;29;20058;-72
2022/04/18 09:15:55;;;;;;;4.65;1.23;;;12.00;69.50;;;;;;4837398;29;20058;-72
2022/04/18 09:18:24;;;;;;;8.05;1.42;;;12.10;68.10;;;;;;4854461;29;20551;-72
2022/04/18 09:20:56;;;;;;;5.10;1.03;;;12.20;66.80;;;;;;4840339;29;20054;-73
2022/04/18 09:23:33;;;;;;;5.72;1.13;;;12.20;66.40;;;;;;4833941;29;20297;-71
2022/04/18 09:26:26;;;;;;;5.72;1.38;;;12.30;65.90;;;;;;4821939;29;20058;-73
2022/04/18 09:29:04;;;;;;;9.20;1.10;;;12.30;64.10;;;;;;4853919;29;20059;-72
2022/04/18 09:31:41;;;;;;;3.58;0.90;;;12.30;63.20;;;;;;4916793;29;20055;-72
2022/04/18 09:34:22;;;;;;;5.18;1.00;;;12.30;62.40;;;;;;4920355;29;20056;-73
2022/04/18 09:37:09;;;;;;;6.20;1.17;;;12.20;62.10;;;;;;4934755;29;20039;-73
2022/04/18 09:39:39;;;;;;;4.93;1.23;;;12.10;62.10;;;;;;4923675;28;20403;-73
2022/04/18 09:42:10;;;;;;;5.75;1.00;;;12.30;61.50;;;;;;4874654;29;20054;-73
2022/04/18 09:45:01;;;;;;;3.22;1.10;;;12.30;59.80;;;;;;4918197;29;20066;-73
2022/04/18 09:47:35;;;;;;;6.70;1.05;;;12.50;58.60;;;;;;4938267;28;20043;-73
2022/04/18 09:53:26;;;;;;;4.88;1.00;;;12.60;58.60;;;;;;4936285;29;20047;-73
2022/04/18 09:55:55;;;;;;;6.15;1.10;;;12.70;58.40;;;;;;4936828;29;20047;-72
2022/04/18 09:58:24;;;;;;;1.90;0.65;;;12.80;57.00;;;;;;4937088;29;20058;-72
2022/04/18 10:01:12;;;;;;;3.53;1.17;;;12.80;56.50;;;;;;4953947;29;20058;-72
2022/04/18 10:03:41;;;;;;;4.72;1.08;;;12.80;55.40;;;;;;4938079;29;20050;-72
2022/04/18 10:06:10;;;;;;;8.40;1.45;;;12.80;55.90;;;;;;4954359;29;20062;-72
2022/04/18 10:08:38;;;;;;;3.13;0.73;;;12.90;55.50;;;;;;4954827;29;20058;-72
2022/04/18 10:11:08;;;;;;;5.32;1.02;;;13.00;56.10;;;;;;4954874;29;20371;-72
2022/04/18 10:13:36;;;;;;;3.00;0.80;;;13.00;53.60;;;;;;4921552;29;20501;-71
2022/04/18 10:16:05;;;;;;;7.45;1.30;;;12.90;54.50;;;;;;4953664;29;20043;-72
2022/04/18 10:18:50;;;;;;;3.03;0.75;;;13.10;55.20;;;;;;4954150;28;20047;-73
2022/04/18 10:21:29;;;;;;;4.47;1.08;;;13.10;53.00;;;;;;4954755;29;20497;-72
2022/04/18 10:24:15;;;;;;;5.22;0.85;;;13.00;52.00;;;;;;4947311;28;20070;-73
2022/04/18 10:27:01;;;;;;;5.43;1.08;;;13.00;52.60;;;;;;4948822;29;20047;-72
2022/04/18 10:29:42;;;;;;;7.15;1.40;;;13.20;52.60;;;;;;4944370;28;20058;-71
2022/04/18 10:32:11;;;;;;;7.03;0.90;;;13.50;52.80;;;;;;4972320;28;20058;-71
2022/04/18 10:34:39;;;;;;;3.83;1.10;;;13.80;53.10;;;;;;4948604;28;20063;-72
2022/04/18 10:37:09;;;;;;;3.28;1.05;;;14.10;51.80;;;;;;4936151;29;20039;-71
2022/04/18 10:39:38;;;;;;;4.15;1.00;;;14.30;51.60;;;;;;4949197;29;20039;-72
2022/04/18 10:42:23;;;;;;;4.68;1.02;;;14.50;47.70;;;;;;4944595;29;20529;-71
2022/04/18 10:45:04;;;;;;;2.70;1.25;;;14.10;47.10;;;;;;4936944;29;20054;-71
2022/04/18 10:48:10;;;;;;;5.22;1.20;;;13.70;49.80;;;;;;4924007;29;20055;-70
2022/04/18 10:50:45;;;;;;;4.40;0.93;;;13.70;50.60;;;;;;4934552;29;20044;-71
2022/04/18 10:53:18;;;;;;;5.32;1.15;;;14.00;49.30;;;;;;4943388;29;20055;-71
2022/04/18 10:55:52;;;;;;;4.18;1.08;;;14.30;49.40;;;;;;4949109;28;20481;-70
2022/04/18 10:58:25;;;;;;;4.90;1.02;;;14.30;49.10;;;;;;4924546;29;20055;-70
2022/04/18 11:00:55;;;;;;;6.85;1.23;;;14.00;48.30;;;;;;4946142;29;20059;-70
2022/04/18 11:03:37;;;;;;;4.60;1.17;;;13.80;48.90;;;;;;4943829;28;20136;-71
2022/04/18 11:06:15;;;;;;;2.97;0.95;;;13.70;50.30;;;;;;4946853;28;20050;-82
2022/04/18 11:09:09;;;;;;;6.88;1.30;;;14.00;50.00;;;;;;4942989;29;20091;-72
2022/04/18 11:12:01;;;;;;;4.47;1.00;;;14.40;47.80;;;;;;4901271;29;20055;-72
2022/04/18 11:14:42;;;;;;;4.38;0.95;;;14.80;47.00;;;;;;4918275;29;20048;-73
2022/04/18 11:17:23;;;;;;;2.47;0.93;;;14.80;46.70;;;;;;4916908;29;20493;-73
2022/04/18 11:19:51;;;;;;;6.28;1.35;;;14.80;44.40;;;;;;4932791;29;20067;-73
2022/04/18 11:22:23;;;;;;;4.05;1.10;;;14.50;45.50;;;;;;4916144;29;20052;-72
2022/04/18 11:24:54;;;;;;;3.30;1.02;;;14.30;46.30;;;;;;4899584;29;20050;-72
2022/04/18 11:27:30;;;;;;;6.03;0.88;;;14.30;46.70;;;;;;4933141;29;20048;-73
2022/04/18 11:30:00;;;;;;;4.93;0.80;;;14.60;45.10;;;;;;4934191;29;20047;-72
2022/04/18 11:32:31;;;;;;;3.80;0.95;;;14.80;43.30;;;;;;4903806;29;20056;-72
2022/04/18 11:34:59;;;;;;;9.07;1.38;;;14.80;43.60;;;;;;4937780;29;20423;-73
2022/04/18 11:37:33;;;;;;;11.10;1.35;;;15.00;44.10;;;;;;4921771;29;20212;-73
2022/04/18 11:40:05;;;;;;;;;;;15.10;44.70;;;;;;4939102;29;20052;-73
2022/04/18 11:42:33;;;;;;;3.70;1.20;;;15.20;45.00;;;;;;4938734;29;20337;-74
2022/04/18 11:45:06;;;;;;;7.05;1.40;;;15.30;44.90;;;;;;4938368;29;20466;-73
2022/04/18 11:47:37;;;;;;;5.32;0.80;;;15.40;43.50;;;;;;4921743;29;20051;-73
2022/04/18 11:50:05;;;;;;;5.47;1.10;;;15.60;43.40;;;;;;4921340;29;20047;-72
2022/04/18 11:52:38;;;;;;;4.00;1.10;;;15.80;42.80;;;;;;4937612;29;20055;-72
2022/04/18 11:55:06;;;;;;;5.50;1.15;;;15.90;40.90;;;;;;4937941;29;20047;-73
2022/04/18 11:57:35;;;;;;;4.28;1.05;;;15.70;39.70;;;;;;4920808;29;20058;-72
2022/04/18 12:06:44;;;;;;;5.40;1.38;;;15.50;41.10;;;;;;4921155;29;20501;-73
2022/04/18 12:08:42;;;;;;;3.17;1.30;;;15.60;42.60;;;;;;4936343;29;20039;-73
2022/04/18 12:11:10;;;;;;;6.75;1.38;;;15.80;42.70;;;;;;4936712;29;20145;-73
2022/04/18 12:13:45;;;;;;;5.22;1.20;;;16.00;43.30;;;;;;4938042;29;20058;-72
2022/04/18 12:16:20;;;;;;;3.17;0.80;;;16.60;42.50;;;;;;4937373;29;20048;-73
2022/04/18 12:18:53;;;;;;;4.25;1.00;;;17.30;40.60;;;;;;4937949;29;20515;-73
2022/04/18 12:21:23;;;;;;;3.55;0.95;;;17.80;38.40;;;;;;4920868;29;20059;-73
2022/04/18 12:23:55;;;;;;;4.60;1.20;;;18.00;37.40;;;;;;4936861;29;20044;-73
2022/04/18 12:26:35;;;;;;;3.80;1.02;;;18.20;36.90;;;;;;4935614;29;20040;-72
2022/04/18 12:29:10;;;;;;;2.40;0.88;;;18.70;37.70;;;;;;4903085;29;20059;-73
2022/04/18 12:31:40;;;;;;;3.15;0.98;;;19.30;33.30;;;;;;4918574;29;20067;-73
2022/04/18 12:34:19;;;;;;;2.75;1.10;;;19.50;33.90;;;;;;4918876;29;20044;-72
2022/04/18 12:36:59;;;;;;;3.33;1.02;;;19.50;34.20;;;;;;4935170;29;20521;-72
2022/04/18 12:39:27;;;;;;;4.03;0.95;;;19.60;34.70;;;;;;4919044;29;20047;-72
2022/04/18 12:42:07;;;;;;;4.40;1.05;;;19.80;34.80;;;;;;4920076;29;20058;-72
2022/04/18 12:44:35;;;;;;;5.43;1.00;;;19.90;35.00;;;;;;4936562;29;20059;-72
2022/04/18 12:47:17;;;;;;;5.43;1.55;;;19.80;34.00;;;;;;4920085;29;20394;-72
2022/04/18 12:50:11;;;;;;;4.97;1.40;;;19.20;34.40;;;;;;4920439;29;20386;-72
2022/04/18 12:52:51;;;;;;;4.22;1.20;;;18.30;35.40;;;;;;4920204;29;20417;-72
2022/04/18 12:55:31;;;;;;;4.47;0.90;;;17.80;37.00;;;;;;4920624;29;20059;-72
2022/04/18 12:58:00;;;;;;;3.88;1.00;;;17.80;37.10;;;;;;4920274;29;20040;-72
2022/04/18 13:00:36;;;;;;;2.10;0.90;;;17.70;37.70;;;;;;4937153;29;20047;-72
2022/04/18 13:03:08;;;;;;;3.60;0.82;;;17.60;37.30;;;;;;4936684;29;20235;-72
2022/04/18 13:05:43;;;;;;;5.93;1.52;;;17.30;37.90;;;;;;4936777;29;20059;-72
2022/04/18 13:08:13;;;;;;;4.25;1.10;;;17.00;39.10;;;;;;4919747;29;20055;-72
2022/04/18 13:10:42;;;;;;;6.25;1.50;;;16.90;39.40;;;;;;4919921;29;20130;-72
2022/04/18 13:13:12;;;;;;;7.85;1.75;;;16.90;39.20;;;;;;4936725;29;20051;-72
2022/04/18 13:15:41;;;;;;;5.05;1.40;;;17.00;39.40;;;;;;4920043;29;20052;-74
2022/04/18 13:18:11;;;;;;;4.32;1.70;;;17.20;39.10;;;;;;4936902;29;20060;-73
2022/04/18 13:20:40;;;;;;;8.85;1.92;;;17.30;37.80;;;;;;4936452;29;20044;-72
2022/04/18 13:23:08;;;;;;;4.45;2.10;;;17.50;38.30;;;;;;4936642;29;20051;-73
2022/04/18 13:25:36;;;;;;;5.20;1.80;;;18.30;38.20;;;;;;4919671;29;20043;-73
2022/04/18 13:28:06;;;;;;;4.97;1.90;;;18.50;37.60;;;;;;4919743;29;20050;-72
2022/04/18 13:30:40;;;;;;;2.40;1.23;;;18.30;36.00;;;;;;4936547;29;20052;-73
2022/04/18 13:33:08;;;;;;;3.22;1.10;;;17.80;36.50;;;;;;4936561;29;20062;-73
2022/04/18 13:38:27;;;;;;;3.60;1.10;;;17.00;37.70;;;;;;4918332;29;20393;-73
2022/04/18 13:40:55;;;;;;;4.40;1.13;;;16.80;38.40;;;;;;4918721;29;20147;-73
2022/04/18 13:43:23;;;;;;;5.03;0.90;;;16.70;39.70;;;;;;4919156;29;20043;-72
2022/04/18 13:45:51;;;;;;;5.28;1.17;;;16.50;39.70;;;;;;4936430;29;20062;-73
2022/04/18 13:48:21;;;;;;;4.20;1.15;;;16.40;39.50;;;;;;4936159;29;20052;-73
2022/04/18 13:50:48;;;;;;;11.00;1.88;;;16.30;39.60;;;;;;4919102;29;20052;-73
2022/04/18 13:53:16;;;;;;;3.95;0.95;;;16.30;40.00;;;;;;4917500;29;20106;-73
2022/04/18 13:55:44;;;;;;;4.78;1.13;;;16.30;40.30;;;;;;4935912;29;20051;-73